createdAt,value
2023-09-15T00:01:19.804Z,100432.38
2023-09-15T00:04:21.769Z,100462.31
2023-09-15T00:07:23.703Z,100464.22
2023-09-15T00:10:25.936Z,100457.28
2023-09-15T00:13:28.563Z,100457.94
2023-09-15T00:16:31.433Z,100429.00
2023-09-15T00:19:33.616Z,100468.63
2023-09-15T00:22:36.140Z,100458.78
2023-09-15T00:25:38.410Z,100408.25
2023-09-15T00:28:40.931Z,100456.13
2023-09-15T00:31:43.133Z,100402.03
2023-09-15T00:34:45.012Z,100449.44
2023-09-15T00:37:47.719Z,100455.34
2023-09-15T00:40:49.582Z,100453.72
2023-09-15T00:43:52.466Z,100460.13
2023-09-15T00:46:55.576Z,100452.31
2023-09-15T00:49:57.769Z,100451.38
2023-09-15T00:53:11.980Z,100449.81
2023-09-15T00:56:14.346Z,100464.81
2023-09-15T00:59:16.511Z,100456.09
2023-09-15T01:02:18.993Z,100448.28
2023-09-15T01:05:25.919Z,100470.91
2023-09-15T01:08:27.851Z,100460.31
2023-09-15T01:11:29.758Z,100468.31
2023-09-15T01:14:31.899Z,100462.22
2023-09-15T01:17:56.101Z,100478.81
2023-09-15T01:21:06.996Z,100477.84
2023-09-15T01:24:11.611Z,100478.72
2023-09-15T01:27:17.182Z,100479.59
2023-09-15T01:30:20.726Z,100477.84
2023-09-15T01:33:22.925Z,100471.19
2023-09-15T01:36:24.931Z,100496.19
2023-09-15T01:39:31.574Z,100484.25
2023-09-15T01:42:34.119Z,100498.19
2023-09-15T01:45:35.988Z,100496.28
2023-09-15T01:48:38.329Z,100511.44
2023-09-15T01:51:40.394Z,100512.19
2023-09-15T01:54:42.779Z,100509.53
2023-09-15T01:57:44.685Z,100506.94
2023-09-15T02:00:47.313Z,100507.72
2023-09-15T02:03:49.639Z,100516.78
2023-09-15T02:06:51.632Z,100501.88
2023-09-15T02:09:53.557Z,100501.78
2023-09-15T02:12:55.457Z,100515.06
2023-09-15T02:15:57.441Z,100509.31
2023-09-15T02:18:59.522Z,100490.44
2023-09-15T02:22:01.412Z,100508.28
2023-09-15T02:25:03.385Z,100516.31
2023-09-15T02:28:06.558Z,100515.47
2023-09-15T02:31:08.640Z,100506.75
2023-09-15T02:34:11.256Z,100527.84
2023-09-15T02:37:16.301Z,100515.47
2023-09-15T02:40:18.817Z,100451.84
2023-09-15T02:43:20.776Z,100506.16
2023-09-15T02:46:23.294Z,100520.78
2023-09-15T02:49:25.327Z,100520.59
2023-09-15T02:52:27.287Z,100514.38
2023-09-15T02:55:29.134Z,100514.66
2023-09-15T02:58:31.499Z,100533.28
2023-09-15T03:01:33.481Z,100526.22
2023-09-15T03:04:35.529Z,100533.28
2023-09-15T03:07:40.867Z,100539.75
2023-09-15T03:10:45.443Z,100536.91
2023-09-15T03:13:47.471Z,100542.34
2023-09-15T03:16:49.536Z,100523.44
2023-09-15T03:19:51.459Z,100540.97
2023-09-15T03:22:53.910Z,100531.03
2023-09-15T03:26:04.270Z,100542.22
2023-09-15T03:29:09.490Z,100542.13
2023-09-15T03:32:11.410Z,100551.06
2023-09-15T03:35:13.278Z,100542.41
2023-09-15T03:38:15.167Z,100542.22
2023-09-15T03:41:17.037Z,100551.25
2023-09-15T03:44:19.028Z,100535.19
2023-09-15T03:47:21.419Z,100561.16
2023-09-15T03:50:23.583Z,100565.75
2023-09-15T03:53:26.982Z,100534.66
2023-09-15T03:56:28.988Z,100559.22
2023-09-15T03:59:30.881Z,100563.63
2023-09-15T04:02:33.229Z,100558.28
2023-09-15T04:05:35.824Z,100569.88
2023-09-15T04:08:37.970Z,100566.38
2023-09-15T04:11:42.059Z,100570.00
2023-09-15T04:14:43.882Z,100559.81
2023-09-15T04:17:45.956Z,100571.84
2023-09-15T04:20:51.133Z,100557.69
2023-09-15T04:23:53.231Z,100581.09
2023-09-15T04:26:55.164Z,100581.84
2023-09-15T04:29:58.007Z,100583.41
2023-09-15T04:33:06.027Z,100577.38
2023-09-15T04:36:08.390Z,100562.75
2023-09-15T04:39:12.281Z,100583.59
2023-09-15T04:42:14.211Z,100603.75
2023-09-15T04:45:16.557Z,100584.03
2023-09-15T04:48:19.572Z,100594.69
2023-09-15T04:51:21.613Z,100588.75
2023-09-15T04:54:23.545Z,100544.91
2023-09-15T04:57:26.137Z,100586.16
2023-09-15T05:00:30.638Z,100587.53
2023-09-15T05:03:34.762Z,100600.53
2023-09-15T05:06:36.918Z,100594.22
2023-09-15T05:09:39.201Z,100601.22
2023-09-15T05:12:41.141Z,100600.06
2023-09-15T05:15:44.203Z,100615.66
2023-09-15T05:18:46.752Z,100534.34
2023-09-15T05:21:48.899Z,100611.94
2023-09-15T05:24:50.859Z,100617.13
2023-09-15T05:27:53.738Z,100617.69
2023-09-15T05:31:01.008Z,100614.06
2023-09-15T05:34:05.702Z,100622.47
2023-09-15T05:37:08.312Z,100628.59
2023-09-15T05:40:11.048Z,100617.63
2023-09-15T05:43:13.247Z,100612.19
2023-09-15T05:46:15.112Z,100620.53
2023-09-15T05:49:17.051Z,100622.97
2023-09-15T05:52:19.129Z,100624.69
2023-09-15T05:55:21.062Z,100631.81
2023-09-15T05:58:22.976Z,100643.63
2023-09-15T06:01:25.188Z,100629.84
2023-09-15T06:04:27.210Z,100628.47
2023-09-15T06:07:29.191Z,100634.03
2023-09-15T06:10:31.115Z,100646.66
2023-09-15T06:13:33.329Z,100642.41
2023-09-15T06:16:37.581Z,100639.22
2023-09-15T06:19:39.715Z,100632.22
2023-09-15T06:22:41.574Z,100650.00
2023-09-15T06:25:45.998Z,100646.59
2023-09-15T06:28:48.545Z,100645.53
2023-09-15T06:31:53.561Z,100659.56
2023-09-15T06:34:55.893Z,100658.84
2023-09-15T06:37:57.882Z,100616.16
2023-09-15T06:41:02.350Z,100646.91
2023-09-15T06:44:04.784Z,100647.44
2023-09-15T06:47:07.424Z,100651.13
2023-09-15T06:50:10.668Z,100647.03
2023-09-15T06:53:12.769Z,100646.19
2023-09-15T06:56:14.652Z,100665.06
2023-09-15T06:59:16.534Z,100649.72
2023-09-15T07:02:19.112Z,100648.41
2023-09-15T07:05:21.481Z,100668.81
2023-09-15T07:08:23.303Z,100657.13
2023-09-15T07:11:26.457Z,100663.03
2023-09-15T07:14:29.358Z,100655.31
2023-09-15T07:17:31.358Z,100654.41
2023-09-15T07:20:33.332Z,100538.31
2023-09-15T07:23:35.149Z,100663.28
2023-09-15T07:26:37.139Z,100655.69
2023-09-15T07:29:39.484Z,100672.97
2023-09-15T07:32:41.399Z,100619.13
2023-09-15T07:35:43.490Z,100666.09
2023-09-15T07:38:45.338Z,100659.47
2023-09-15T07:41:47.320Z,100659.03
2023-09-15T07:44:49.204Z,100672.66
2023-09-15T07:47:51.258Z,100679.84
2023-09-15T07:50:53.194Z,100672.88
2023-09-15T07:53:55.916Z,100617.31
2023-09-15T07:56:57.892Z,100680.25
2023-09-15T08:00:00.644Z,100684.63
2023-09-15T08:03:02.708Z,100659.91
2023-09-15T08:06:04.771Z,100678.09
2023-09-15T08:09:06.746Z,100683.44
2023-09-15T08:12:08.704Z,100673.81
2023-09-15T08:15:11.513Z,100675.31
2023-09-15T08:18:15.373Z,100672.34
2023-09-15T08:21:17.310Z,100679.84
2023-09-15T08:24:21.372Z,100676.41
2023-09-15T08:27:23.584Z,100674.19
2023-09-15T08:30:25.751Z,100671.81
2023-09-15T08:33:28.685Z,100675.81
2023-09-15T08:36:30.638Z,100662.69
2023-09-15T08:39:32.502Z,100650.97
2023-09-15T08:42:34.662Z,100675.09
2023-09-15T08:45:38.755Z,100673.72
2023-09-15T08:48:42.367Z,100671.28
2023-09-15T08:51:45.660Z,100671.03
2023-09-15T08:54:48.078Z,100665.91
2023-09-15T08:57:50.867Z,100659.53
2023-09-15T09:00:56.130Z,100674.50
2023-09-15T09:03:58.485Z,100682.38
2023-09-15T09:07:02.952Z,100696.00
2023-09-15T09:10:05.504Z,100667.25
2023-09-15T09:13:07.633Z,100673.72
2023-09-15T09:16:11.793Z,100678.38
2023-09-15T09:19:14.425Z,100673.59
2023-09-15T09:22:20.632Z,100686.69
2023-09-15T09:25:27.199Z,100684.13
2023-09-15T09:28:29.066Z,100680.56
2023-09-15T09:31:31.418Z,100682.50
2023-09-15T09:34:46.885Z,100667.47
2023-09-15T09:37:50.108Z,100668.81
2023-09-15T09:40:51.988Z,100688.84
2023-09-15T09:43:53.941Z,100673.94
2023-09-15T09:46:57.548Z,100677.41
2023-09-15T09:49:59.554Z,100672.59
2023-09-15T09:53:08.879Z,100673.69
2023-09-15T09:56:11.038Z,100665.78
2023-09-15T09:59:12.930Z,100690.03
2023-09-15T10:02:15.053Z,100692.00
2023-09-15T10:05:16.992Z,100677.09
2023-09-15T10:08:19.771Z,100671.00
2023-09-15T10:11:22.066Z,100684.84
2023-09-15T10:14:25.201Z,100680.13
2023-09-15T10:17:28.514Z,100675.44
2023-09-15T10:20:31.599Z,100625.56
2023-09-15T10:23:34.790Z,100666.13
2023-09-15T10:26:42.940Z,100667.19
2023-09-15T10:29:46.700Z,100675.72
2023-09-15T10:32:49.703Z,100655.53
2023-09-15T10:35:51.742Z,100677.28
2023-09-15T10:38:53.735Z,100671.19
2023-09-15T10:42:06.153Z,100655.56
2023-09-15T10:45:12.742Z,100650.63
2023-09-15T10:48:14.693Z,100625.31
2023-09-15T10:51:19.508Z,100661.31
2023-09-15T10:54:22.264Z,100666.94
2023-09-15T10:57:24.510Z,100663.56
2023-09-15T11:00:26.871Z,100662.31
2023-09-15T11:03:29.871Z,100654.69
2023-09-15T11:06:33.583Z,100630.03
2023-09-15T11:09:35.701Z,100612.34
2023-09-15T11:12:37.656Z,100658.63
2023-09-15T11:15:39.904Z,100660.81
2023-09-15T11:18:41.793Z,100664.50
2023-09-15T11:21:45.004Z,100664.84
2023-09-15T11:24:46.825Z,100663.72
2023-09-15T11:27:50.530Z,100660.50
2023-09-15T11:30:53.910Z,100659.03
2023-09-15T11:33:57.936Z,100657.78
2023-09-15T11:37:01.350Z,100660.78
2023-09-15T11:40:04.399Z,100669.88
2023-09-15T11:43:06.194Z,100664.72
2023-09-15T11:46:10.996Z,100668.56
2023-09-15T11:49:13.434Z,100654.31
2023-09-15T11:52:15.881Z,100657.94
2023-09-15T11:55:23.848Z,100646.75
2023-09-15T11:58:26.042Z,100655.47
2023-09-15T12:01:29.983Z,100662.91
2023-09-15T12:04:32.209Z,100660.66
2023-09-15T12:07:34.274Z,100648.63
2023-09-15T12:10:36.270Z,100649.56
2023-09-15T12:13:38.306Z,100648.34
2023-09-15T12:16:40.825Z,100644.16
2023-09-15T12:19:42.642Z,100647.59
2023-09-15T12:22:45.492Z,100604.91
2023-09-15T12:25:47.417Z,100639.09
2023-09-15T12:28:50.237Z,100636.84
2023-09-15T12:31:52.654Z,100636.31
2023-09-15T12:34:55.425Z,100623.06
2023-09-15T12:37:57.794Z,100633.63
2023-09-15T12:40:59.606Z,100628.00
2023-09-15T12:44:01.456Z,100619.91
2023-09-15T12:47:05.649Z,100621.69
2023-09-15T12:50:08.055Z,100625.09
2023-09-15T12:53:10.018Z,100620.34
2023-09-15T12:56:12.044Z,100614.91
2023-09-15T12:59:14.469Z,100616.06
2023-09-15T13:02:16.521Z,100618.31
2023-09-15T13:05:18.641Z,100617.88
2023-09-15T13:08:20.639Z,100611.59
2023-09-15T13:11:22.453Z,100604.47
2023-09-15T13:14:24.325Z,100567.25
2023-09-15T13:17:26.252Z,100607.81
2023-09-15T13:20:28.126Z,100615.38
2023-09-15T13:23:29.993Z,100602.69
2023-09-15T13:26:32.261Z,100612.06
2023-09-15T13:29:34.286Z,100574.06
2023-09-15T13:32:36.139Z,100572.19
2023-09-15T13:35:37.954Z,100568.25
2023-09-15T13:38:39.945Z,100607.22
2023-09-15T13:41:41.742Z,100597.00
2023-09-15T13:44:43.673Z,100609.41
2023-09-15T13:47:45.690Z,100605.44
2023-09-15T13:50:48.665Z,100572.38
2023-09-15T13:53:50.777Z,100611.50
2023-09-15T13:56:52.808Z,100611.25
2023-09-15T13:59:54.854Z,100613.97
2023-09-15T14:02:57.226Z,100617.19
2023-09-15T14:05:59.434Z,100621.84
2023-09-15T14:09:01.297Z,100563.16
2023-09-15T14:12:04.045Z,100616.72
2023-09-15T14:15:10.567Z,100615.38
2023-09-15T14:18:13.861Z,100618.53
2023-09-15T14:21:17.472Z,100612.56
2023-09-15T14:24:19.952Z,100622.69
2023-09-15T14:27:22.152Z,100604.84
2023-09-15T14:30:24.367Z,100610.84
2023-09-15T14:33:26.210Z,100613.41
2023-09-15T14:36:28.048Z,100609.38
2023-09-15T14:39:30.052Z,100600.81
2023-09-15T14:42:33.138Z,100587.09
2023-09-15T14:45:35.179Z,100603.75
2023-09-15T14:48:37.136Z,100594.63
2023-09-15T14:51:40.136Z,100602.56
2023-09-15T14:54:42.104Z,100601.50
2023-09-15T14:57:44.007Z,100601.97
2023-09-15T15:00:46.019Z,100603.56
2023-09-15T15:03:47.913Z,100620.75
2023-09-15T15:06:50.229Z,100603.84
2023-09-15T15:09:52.266Z,100612.13
2023-09-15T15:12:54.142Z,100604.34
2023-09-15T15:15:56.331Z,100593.31
2023-09-15T15:19:05.758Z,100607.41
2023-09-15T15:22:09.860Z,100612.78
2023-09-15T15:25:11.942Z,100612.97
2023-09-15T15:28:13.815Z,100613.00
2023-09-15T15:31:18.207Z,100619.03
2023-09-15T15:34:19.951Z,100614.72
2023-09-15T15:37:23.399Z,100625.34
2023-09-15T15:40:25.264Z,100622.88
2023-09-15T15:43:27.365Z,100611.19
2023-09-15T15:46:29.259Z,100642.63
2023-09-15T15:49:32.026Z,100632.84
2023-09-15T15:52:36.759Z,100602.19
2023-09-15T15:55:38.592Z,100640.59
2023-09-15T15:58:40.396Z,100648.94
2023-09-15T16:01:42.249Z,100648.09
2023-09-15T16:04:46.237Z,100645.75
2023-09-15T16:07:48.059Z,100649.63
2023-09-15T16:10:49.944Z,100645.84
2023-09-15T16:13:51.845Z,100655.50
2023-09-15T16:16:54.219Z,100631.91
2023-09-15T16:19:58.247Z,100648.13
2023-09-15T16:23:00.138Z,100646.59
2023-09-15T16:26:04.990Z,100586.56
2023-09-15T16:29:07.203Z,100632.38
2023-09-15T16:32:09.227Z,100638.72
2023-09-15T16:35:12.256Z,100572.94
2023-09-15T16:38:15.230Z,100655.69
2023-09-15T16:41:17.166Z,100651.38
2023-09-15T16:44:19.019Z,100650.31
2023-09-15T16:47:28.645Z,100672.13
2023-09-15T16:50:30.693Z,100663.47
2023-09-15T16:53:32.605Z,100640.31
2023-09-15T16:56:34.449Z,100673.94
2023-09-15T16:59:36.363Z,100666.13
2023-09-15T17:02:38.785Z,100680.47
2023-09-15T17:05:41.024Z,100666.44
2023-09-15T17:08:42.998Z,100673.00
2023-09-15T17:11:44.885Z,100673.41
2023-09-15T17:14:48.114Z,100664.50
2023-09-15T17:17:50.024Z,100673.78
2023-09-15T17:20:52.014Z,100675.44
2023-09-15T17:23:53.965Z,100674.16
2023-09-15T17:26:56.899Z,100687.13
2023-09-15T17:29:58.764Z,100688.94
2023-09-15T17:33:01.602Z,100690.16
2023-09-15T17:36:03.728Z,100690.22
2023-09-15T17:39:06.410Z,100690.66
2023-09-15T17:42:09.382Z,100662.72
2023-09-15T17:45:12.274Z,100692.91
2023-09-15T17:48:14.280Z,100702.75
2023-09-15T17:51:16.163Z,100711.00
2023-09-15T17:54:22.617Z,100698.84
2023-09-15T17:57:24.792Z,100690.72
2023-09-15T18:00:27.074Z,100692.50
2023-09-15T18:03:29.198Z,100706.34
2023-09-15T18:06:31.224Z,100715.84
2023-09-15T18:09:35.352Z,100718.50
2023-09-15T18:12:37.752Z,100715.06
2023-09-15T18:15:39.795Z,100731.69
2023-09-15T18:18:42.313Z,100733.56
2023-09-15T18:21:44.231Z,100725.34
2023-09-15T18:24:48.193Z,100734.44
2023-09-15T18:27:50.125Z,100741.31
2023-09-15T18:30:52.985Z,100741.22
2023-09-15T18:33:56.316Z,100732.78
2023-09-15T18:36:59.943Z,100750.56
2023-09-15T18:40:01.827Z,100747.22
2023-09-15T18:43:03.950Z,100735.59
2023-09-15T18:46:06.351Z,100750.56
2023-09-15T18:49:10.177Z,100758.75
2023-09-15T18:52:12.067Z,100746.16
2023-09-15T18:55:14.315Z,100752.28
2023-09-15T18:58:16.262Z,100758.91
2023-09-15T19:01:18.105Z,100756.06
2023-09-15T19:04:20.004Z,100750.75
2023-09-15T19:07:21.862Z,100749.81
2023-09-15T19:10:24.455Z,100752.47
2023-09-15T19:13:33.518Z,100755.75
2023-09-15T19:16:36.125Z,100717.22
2023-09-15T19:19:37.997Z,100710.69
2023-09-15T19:22:40.541Z,100753.69
2023-09-15T19:25:43.063Z,100751.78
2023-09-15T19:28:47.900Z,100753.06
2023-09-15T19:31:49.945Z,100753.00
2023-09-15T19:34:52.636Z,100699.75
2023-09-15T19:37:54.471Z,100762.09
2023-09-15T19:40:56.323Z,100755.91
2023-09-15T19:43:58.939Z,100754.34
2023-09-15T19:47:00.900Z,100705.88
2023-09-15T19:50:03.755Z,100763.38
2023-09-15T19:53:06.780Z,100767.88
2023-09-15T19:56:08.719Z,100769.63
2023-09-15T19:59:10.586Z,100774.78
2023-09-15T20:02:12.999Z,100759.03
2023-09-15T20:05:15.737Z,100771.22
2023-09-15T20:08:17.598Z,100769.53
2023-09-15T20:11:19.494Z,100768.94
2023-09-15T20:14:21.850Z,100764.69
2023-09-15T20:17:26.465Z,100766.91
2023-09-15T20:20:28.319Z,100722.59
2023-09-15T20:23:30.891Z,100758.25
2023-09-15T20:26:32.699Z,100762.44
2023-09-15T20:29:34.577Z,100759.84
2023-09-15T20:32:37.590Z,100770.50
2023-09-15T20:35:44.839Z,100762.59
2023-09-15T20:38:46.889Z,100778.44
2023-09-15T20:41:49.079Z,100797.63
2023-09-15T20:44:51.216Z,100777.94
2023-09-15T20:47:54.600Z,100784.81
2023-09-15T20:50:56.682Z,100786.72
2023-09-15T20:53:58.496Z,100796.81
2023-09-15T20:57:00.564Z,100794.38
2023-09-15T21:00:02.720Z,100775.69
2023-09-15T21:03:04.926Z,100784.31
2023-09-15T21:06:06.841Z,100798.53
2023-09-15T21:09:08.946Z,100795.44
2023-09-15T21:12:16.057Z,100797.75
2023-09-15T21:15:18.018Z,100790.06
2023-09-15T21:18:20.050Z,100776.84
2023-09-15T21:21:22.015Z,100799.22
2023-09-15T21:24:23.928Z,100784.59
2023-09-15T21:27:26.023Z,100789.28
2023-09-15T21:30:28.023Z,100779.63
2023-09-15T21:33:30.003Z,100772.00
2023-09-15T21:36:31.984Z,100779.81
2023-09-15T21:39:34.841Z,100655.66
2023-09-15T21:42:36.796Z,100735.81
2023-09-15T21:45:38.821Z,100784.69
2023-09-15T21:48:40.886Z,100773.63
2023-09-15T21:51:42.819Z,100786.13
2023-09-15T21:54:44.697Z,100783.66
2023-09-15T21:57:46.706Z,100731.91
2023-09-15T22:00:49.860Z,100788.16
2023-09-15T22:03:51.901Z,100777.94
2023-09-15T22:06:53.830Z,100789.31
2023-09-15T22:09:55.953Z,100800.78
2023-09-15T22:12:58.633Z,100699.75
2023-09-15T22:16:00.734Z,100800.34
2023-09-15T22:19:02.749Z,100792.41
2023-09-15T22:22:09.241Z,100792.72
2023-09-15T22:25:11.954Z,100798.16
2023-09-15T22:28:13.843Z,100784.94
2023-09-15T22:31:16.285Z,100755.72
2023-09-15T22:34:18.237Z,100793.94
2023-09-15T22:37:20.842Z,100797.66
2023-09-15T22:40:23.055Z,100794.41
2023-09-15T22:43:24.913Z,100797.91
2023-09-15T22:46:29.031Z,100798.75
2023-09-15T22:49:31.965Z,100775.25
2023-09-15T22:52:37.970Z,100783.47
2023-09-15T22:55:39.995Z,100760.59
2023-09-15T22:58:41.890Z,100797.69
2023-09-15T23:01:44.037Z,100795.97
2023-09-15T23:04:45.931Z,100809.38
2023-09-15T23:07:47.859Z,100781.91
2023-09-15T23:10:49.731Z,100804.44
2023-09-15T23:13:51.591Z,100806.41
2023-09-15T23:16:53.766Z,100796.88
2023-09-15T23:19:58.468Z,100781.97
2023-09-15T23:23:00.330Z,100802.16
2023-09-15T23:26:02.430Z,100785.47
2023-09-15T23:29:04.230Z,100785.59
2023-09-15T23:32:07.230Z,100796.97
2023-09-15T23:35:11.180Z,100802.41
2023-09-15T23:38:13.464Z,100789.38
2023-09-15T23:41:15.316Z,100790.28
2023-09-15T23:44:17.809Z,100799.94
2023-09-15T23:47:19.668Z,100791.13
2023-09-15T23:50:25.158Z,100784.25
2023-09-15T23:53:27.038Z,100811.69
2023-09-15T23:56:29.513Z,100799.44
2023-09-15T23:59:31.614Z,100795.19
